Time;durP1;ratioP1;P1;durP2;ratioP2;P2;SDS_P1;SDS_P2;PMS_P1;PMS_P2;Temp;Humidity;BMP_temperature;BMP_pressure;BME280_temperature;BME280_humidity;BME280_pressure;Samples;Min_cycle;Max_cycle;Signal;HPM_P1;HPM_P2
2021/04/11 00:01:57;;;;;;;97.82;40.80;;;3.40;55.90;;;;;;5094016;28;20020;-72
2021/04/11 00:04:23;;;;;;;95.40;42.03;;;3.30;56.30;;;;;;5092919;28;20009;-72
2021/04/11 00:06:48;;;;;;;97.43;42.65;;;3.30;56.60;;;;;;5093730;28;20051;-72
2021/04/11 00:09:14;;;;;;;87.85;42.83;;;3.30;56.90;;;;;;5094184;28;20077;-72
2021/04/11 00:11:40;;;;;;;68.55;34.55;;;3.30;57.20;;;;;;5094276;28;20044;-72
2021/04/11 00:14:07;;;;;;;66.63;35.55;;;3.20;57.30;;;;;;5094252;28;20034;-72
2021/04/11 00:16:33;;;;;;;76.00;35.10;;;3.30;57.40;;;;;;5093221;28;20443;-72
2021/04/11 00:18:59;;;;;;;63.42;32.75;;;3.30;57.50;;;;;;5093186;28;20024;-72
2021/04/11 00:21:25;;;;;;;60.92;30.73;;;3.40;57.40;;;;;;5094602;28;20020;-72
2021/04/11 00:23:50;;;;;;;59.47;31.67;;;3.50;57.30;;;;;;5093909;28;20031;-72
2021/04/11 00:26:16;;;;;;;58.97;30.35;;;3.60;57.20;;;;;;5093387;28;20019;-72
2021/04/11 00:28:42;;;;;;;58.03;30.67;;;3.60;57.00;;;;;;5093907;28;20032;-72
2021/04/11 00:31:07;;;;;;;57.97;29.92;;;3.70;56.90;;;;;;5093647;28;20476;-71
2021/04/11 00:33:37;;;;;;;69.93;36.75;;;3.80;56.80;;;;;;5093779;28;20012;-72
2021/04/11 00:36:06;;;;;;;57.75;30.60;;;3.80;56.80;;;;;;5091516;28;20370;-73
2021/04/11 00:38:33;;;;;;;60.70;31.90;;;3.80;56.80;;;;;;5093839;28;20028;-72
2021/04/11 00:41:09;;;;;;;57.20;30.60;;;3.80;56.80;;;;;;5093526;28;20089;-73
2021/04/11 00:43:38;;;;;;;80.75;40.40;;;3.80;56.80;;;;;;5079832;28;20107;-73
2021/04/11 00:46:31;;;;;;;52.13;30.05;;;3.80;56.90;;;;;;5091442;28;20481;-72
2021/04/11 00:48:58;;;;;;;54.47;29.67;;;3.80;57.10;;;;;;5082329;28;20031;-73
2021/04/11 00:51:27;;;;;;;57.40;29.75;;;3.90;56.90;;;;;;5093188;28;20376;-73
2021/04/11 00:54:00;;;;;;;55.50;31.48;;;3.90;56.80;;;;;;5093746;28;20016;-73
2021/04/11 00:56:28;;;;;;;53.42;28.75;;;4.00;56.80;;;;;;5092321;28;20051;-73
2021/04/11 00:58:53;;;;;;;57.38;30.15;;;4.00;56.70;;;;;;5093626;28;20426;-77
2021/04/11 01:01:20;;;;;;;50.63;29.05;;;4.00;56.70;;;;;;5093275;28;20058;-72
2021/04/11 01:03:48;;;;;;;53.42;28.15;;;4.00;56.70;;;;;;5093368;28;20515;-73
2021/04/11 01:06:18;;;;;;;50.13;26.85;;;4.00;56.70;;;;;;5093223;28;20070;-73
2021/04/11 01:08:45;;;;;;;51.85;27.42;;;4.00;56.80;;;;;;5092036;28;20031;-72
2021/04/11 01:11:18;;;;;;;46.80;26.58;;;4.10;56.80;;;;;;5093280;28;20028;-72
2021/04/11 01:14:00;;;;;;;49.97;26.42;;;4.10;56.80;;;;;;5093516;28;20296;-73
2021/04/11 01:16:26;;;;;;;53.05;27.70;;;4.10;56.60;;;;;;5093395;28;20020;-73
2021/04/11 01:18:53;;;;;;;78.00;41.60;;;4.20;56.50;;;;;;5077900;28;20031;-73
2021/04/11 01:21:32;;;;;;;104.53;53.20;;;4.20;56.50;;;;;;5093540;28;20023;-73
2021/04/11 01:24:12;;;;;;;106.70;58.97;;;4.20;56.40;;;;;;5093312;28;20016;-73
2021/04/11 01:26:39;;;;;;;98.97;49.72;;;4.30;56.40;;;;;;5093797;28;20012;-73
2021/04/11 01:29:07;;;;;;;103.20;56.97;;;4.30;56.30;;;;;;5092755;28;20085;-73
2021/04/11 01:31:34;;;;;;;111.60;58.33;;;4.30;56.40;;;;;;5093436;28;20477;-73
2021/04/11 01:34:00;;;;;;;115.85;61.17;;;4.20;56.40;;;;;;5093498;28;20020;-73
2021/04/11 01:36:29;;;;;;;90.15;47.42;;;4.20;56.50;;;;;;5093018;28;20528;-73
2021/04/11 01:38:58;;;;;;;86.70;46.28;;;4.10;56.60;;;;;;5092941;28;20031;-80
2021/04/11 01:41:39;;;;;;;105.05;54.67;;;4.00;57.40;;;;;;5092781;28;20016;-73
2021/04/11 01:44:06;;;;;;;98.40;52.63;;;4.00;57.10;;;;;;5093399;28;20335;-73
2021/04/11 01:46:33;;;;;;;98.15;51.33;;;3.80;57.10;;;;;;5092776;28;20485;-73
2021/04/11 01:48:59;;;;;;;103.43;52.28;;;3.60;57.30;;;;;;5092834;28;20385;-73
2021/04/11 01:51:35;;;;;;;110.93;52.75;;;3.50;57.70;;;;;;5093034;28;20032;-72
2021/04/11 01:54:08;;;;;;;93.40;48.58;;;3.40;58.20;;;;;;5093274;28;20020;-73
2021/04/11 01:56:34;;;;;;;122.78;55.88;;;3.30;58.30;;;;;;5093024;28;20048;-73
2021/04/11 01:58:59;;;;;;;138.48;63.92;;;3.40;58.40;;;;;;5092780;28;20449;-73
2021/04/11 02:01:31;;;;;;;119.15;60.55;;;3.40;58.30;;;;;;5093275;28;20142;-73
2021/04/11 02:03:59;;;;;;;113.97;56.38;;;3.40;58.30;;;;;;5092944;28;20077;-72
2021/04/11 02:06:26;;;;;;;110.78;53.03;;;3.40;58.30;;;;;;5092944;28;20066;-73
2021/04/11 02:09:00;;;;;;;99.15;47.38;;;3.30;58.50;;;;;;5092754;28;20020;-77
2021/04/11 02:11:26;;;;;;;95.85;49.42;;;3.30;58.70;;;;;;5093448;28;20060;-74
2021/04/11 02:13:52;;;;;;;119.60;64.30;;;3.20;58.60;;;;;;5091409;28;20024;-73
2021/04/11 02:16:26;;;;;;;136.07;69.57;;;3.00;58.80;;;;;;5092888;28;20474;-74
2021/04/11 02:19:02;;;;;;;133.48;62.60;;;2.90;59.30;;;;;;5092616;28;20098;-73
2021/04/11 02:21:28;;;;;;;138.75;70.03;;;2.60;59.80;;;;;;5092789;28;20024;-73
2021/04/11 02:23:54;;;;;;;126.53;64.88;;;2.50;60.10;;;;;;5092627;28;20028;-74
2021/04/11 02:26:20;;;;;;;134.38;64.57;;;2.40;60.60;;;;;;5093013;28;20066;-73
2021/04/11 02:28:46;;;;;;;106.05;55.20;;;2.20;60.90;;;;;;5093314;28;20051;-73
2021/04/11 02:31:16;;;;;;;120.18;58.55;;;2.10;61.30;;;;;;5095992;28;21259;-74
2021/04/11 02:33:48;;;;;;;128.25;59.60;;;2.10;61.70;;;;;;5096573;28;20081;-74
2021/04/11 02:36:19;;;;;;;154.07;76.15;;;2.00;62.10;;;;;;5096567;28;20208;-74
2021/04/11 02:38:47;;;;;;;147.88;69.63;;;1.90;62.30;;;;;;5096667;28;20107;-74
2021/04/11 02:41:13;;;;;;;157.93;79.70;;;1.80;62.60;;;;;;5096113;28;20031;-74
2021/04/11 02:43:40;;;;;;;149.75;76.13;;;1.70;62.80;;;;;;5096765;28;20020;-74
2021/04/11 02:46:06;;;;;;;143.23;70.65;;;1.70;63.10;;;;;;5096182;28;20028;-74
2021/04/11 02:48:32;;;;;;;155.13;68.95;;;1.70;63.30;;;;;;5096050;28;20016;-74
2021/04/11 02:50:58;;;;;;;161.88;72.22;;;1.70;63.40;;;;;;5096350;28;20047;-74
2021/04/11 02:53:26;;;;;;;192.35;82.20;;;1.80;63.60;;;;;;5096455;28;20028;-74
2021/04/11 02:55:54;;;;;;;170.95;75.72;;;1.80;63.60;;;;;;5096124;28;20035;-74
2021/04/11 02:58:22;;;;;;;165.02;78.57;;;1.90;63.60;;;;;;5095832;28;20031;-74
2021/04/11 03:00:57;;;;;;;159.98;75.88;;;1.90;63.60;;;;;;5096089;28;20028;-73
2021/04/11 03:03:23;;;;;;;161.32;76.18;;;1.90;63.60;;;;;;5095895;28;20454;-73
2021/04/11 03:05:49;;;;;;;158.40;73.05;;;1.90;63.40;;;;;;5096220;28;20051;-73
2021/04/11 03:08:18;;;;;;;156.90;75.03;;;1.90;63.50;;;;;;5095923;28;20039;-73
2021/04/11 03:11:08;;;;;;;170.57;78.82;;;1.90;63.70;;;;;;5094636;28;20456;-74
2021/04/11 03:13:35;;;;;;;170.73;84.15;;;1.80;63.80;;;;;;5081138;28;20278;-74
2021/04/11 03:16:01;;;;;;;177.13;84.53;;;1.80;64.00;;;;;;5096233;28;20370;-73
2021/04/11 03:18:27;;;;;;;169.55;80.78;;;1.70;64.10;;;;;;5095792;28;20034;-72
2021/04/11 03:20:56;;;;;;;159.90;75.82;;;1.80;64.50;;;;;;5095484;28;20351;-73
2021/04/11 03:23:22;;;;;;;175.40;83.53;;;1.80;64.60;;;;;;5095640;28;20024;-74
2021/04/11 03:25:56;;;;;;;172.65;85.60;;;1.80;64.70;;;;;;5095266;28;20376;-73
2021/04/11 03:28:30;;;;;;;177.43;81.80;;;1.90;65.20;;;;;;5095561;28;20016;-73
2021/04/11 03:31:00;;;;;;;170.50;80.70;;;2.00;65.30;;;;;;5095223;28;20115;-73
2021/04/11 03:33:26;;;;;;;180.18;82.95;;;2.10;65.60;;;;;;5095461;28;20348;-73
2021/04/11 03:35:53;;;;;;;140.88;64.75;;;2.40;66.00;;;;;;5095249;28;20412;-74
2021/04/11 03:38:23;;;;;;;165.77;76.80;;;2.70;65.90;;;;;;5095040;28;20020;-73
2021/04/11 03:40:52;;;;;;;157.93;76.28;;;3.10;65.80;;;;;;5094643;28;20020;-73
2021/04/11 03:43:24;;;;;;;167.63;79.20;;;3.40;65.50;;;;;;5094705;28;20012;-73
2021/04/11 03:45:50;;;;;;;167.77;80.38;;;3.80;65.20;;;;;;5095739;28;20028;-73
2021/04/11 03:48:41;;;;;;;163.65;82.75;;;4.10;64.40;;;;;;5094857;28;20099;-73
2021/04/11 03:51:23;;;;;;;167.77;83.07;;;4.40;63.80;;;;;;5095424;28;20016;-73
2021/04/11 03:53:58;;;;;;;160.10;79.85;;;4.50;63.30;;;;;;5082363;28;20024;-73
2021/04/11 03:56:27;;;;;;;124.07;60.38;;;4.80;63.60;;;;;;5094772;28;20074;-75
2021/04/11 03:59:00;;;;;;;131.32;66.05;;;5.20;63.50;;;;;;5094798;28;20114;-77
2021/04/11 04:01:29;;;;;;;136.23;67.63;;;5.70;62.90;;;;;;5093880;28;20114;-74
2021/04/11 04:04:03;;;;;;;101.90;52.58;;;6.20;62.30;;;;;;5093890;28;20103;-74
2021/04/11 04:06:32;;;;;;;104.47;54.72;;;6.80;61.40;;;;;;5094527;28;20047;-74
2021/04/11 04:08:58;;;;;;;70.95;41.25;;;7.30;60.50;;;;;;5093925;28;20016;-74
2021/04/11 04:12:08;;;;;;;64.25;38.30;;;7.90;59.60;;;;;;5094835;28;20362;-75
2021/04/11 04:14:45;;;;;;;61.55;36.42;;;8.70;58.00;;;;;;5012522;28;20105;-74
2021/04/11 04:17:29;;;;;;;63.20;37.03;;;9.20;56.80;;;;;;5084640;28;20034;-74
2021/04/11 04:20:09;;;;;;;56.90;34.92;;;9.60;55.50;;;;;;5093077;28;20023;-74
2021/04/11 04:22:42;;;;;;;56.85;32.90;;;10.10;54.10;;;;;;5092955;28;20012;-74
2021/04/11 04:25:14;;;;;;;48.25;29.90;;;10.50;53.20;;;;;;5094110;28;20085;-74
2021/04/11 04:27:52;;;;;;;53.78;33.50;;;11.00;52.00;;;;;;5092629;28;20111;-75
2021/04/11 04:30:23;;;;;;;56.05;34.25;;;11.60;51.00;;;;;;5094184;28;20066;-75
2021/04/11 04:33:01;;;;;;;49.40;30.58;;;12.20;49.20;;;;;;5093975;28;20012;-74
2021/04/11 04:35:37;;;;;;;48.60;30.58;;;12.60;47.70;;;;;;5094207;28;20016;-74
2021/04/11 04:38:19;;;;;;;52.47;33.33;;;12.90;46.40;;;;;;5093844;28;20513;-74
2021/04/11 04:40:56;;;;;;;50.60;33.17;;;13.00;45.70;;;;;;5092998;28;20114;-74
2021/04/11 04:44:03;;;;;;;58.65;35.58;;;13.10;45.00;;;;;;5093722;28;20012;-74
2021/04/11 04:46:47;;;;;;;;;;;13.20;44.40;;;;;;5087763;28;20420;-74
2021/04/11 04:49:20;;;;;;;56.22;34.60;;;13.30;46.00;;;;;;5093711;28;19915;-74
2021/04/11 04:51:53;;;;;;;54.33;33.35;;;13.70;45.20;;;;;;5092308;28;20153;-73
2021/04/11 04:54:43;;;;;;;50.20;30.20;;;14.10;43.80;;;;;;5094053;28;20023;-74
2021/04/11 04:57:32;;;;;;;49.65;32.33;;;14.40;43.00;;;;;;5078653;28;20319;-75
2021/04/11 05:00:00;;;;;;;51.75;32.22;;;14.70;42.50;;;;;;5079452;28;20016;-75
2021/04/11 05:02:34;;;;;;;47.90;32.60;;;15.00;42.50;;;;;;5094045;28;20023;-74
2021/04/11 05:05:04;;;;;;;52.10;32.92;;;15.30;42.30;;;;;;5093022;28;20335;-74
2021/04/11 05:07:34;;;;;;;64.00;35.40;;;15.60;40.90;;;;;;5093511;28;20075;-74
2021/04/11 05:10:03;;;;;;;56.85;35.45;;;15.80;40.10;;;;;;5092023;28;20362;-75
2021/04/11 05:12:41;;;;;;;56.75;35.67;;;16.00;39.60;;;;;;5093560;28;20072;-75
2021/04/11 05:15:08;;;;;;;56.92;36.80;;;16.30;39.50;;;;;;5091501;28;20054;-74
2021/04/11 05:17:44;;;;;;;60.10;38.70;;;16.60;39.70;;;;;;5092248;28;20102;-74
2021/04/11 05:20:17;;;;;;;59.45;38.17;;;17.00;39.20;;;;;;5091922;28;20024;-74
2021/04/11 05:22:52;;;;;;;64.13;38.88;;;17.10;38.70;;;;;;5080035;28;20024;-74
2021/04/11 05:25:32;;;;;;;61.65;39.17;;;17.10;38.10;;;;;;5093005;28;20485;-78
2021/04/11 05:28:10;;;;;;;67.78;40.35;;;17.10;37.80;;;;;;5080850;28;20111;-75
2021/04/11 05:30:50;;;;;;;60.70;37.28;;;17.50;37.60;;;;;;5093199;28;20032;-75
2021/04/11 05:33:19;;;;;;;53.83;32.15;;;17.70;37.00;;;;;;5091562;28;20020;-75
2021/04/11 05:35:47;;;;;;;57.83;31.98;;;17.90;36.70;;;;;;5093406;28;20020;-74
2021/04/11 05:38:19;;;;;;;49.10;31.95;;;18.40;36.20;;;;;;5093021;28;20061;-74
2021/04/11 05:40:59;;;;;;;52.90;34.35;;;18.60;35.60;;;;;;5093119;28;20062;-75
2021/04/11 05:43:36;;;;;;;58.42;34.95;;;18.90;35.40;;;;;;5092925;28;20023;-75
2021/04/11 05:46:10;;;;;;;54.92;34.33;;;19.10;35.30;;;;;;5092445;28;20453;-74
2021/04/11 05:48:57;;;;;;;52.80;36.13;;;19.30;35.00;;;;;;5077986;28;20024;-75
2021/04/11 05:51:25;;;;;;;54.80;35.55;;;19.70;34.90;;;;;;5092748;28;20296;-75
2021/04/11 05:54:01;;;;;;;60.33;37.85;;;19.90;34.70;;;;;;5091890;28;20028;-74
2021/04/11 05:56:34;;;;;;;61.70;38.60;;;20.00;34.30;;;;;;5093111;28;20438;-75
2021/04/11 05:59:08;;;;;;;58.97;41.15;;;20.20;34.10;;;;;;5092851;28;20023;-74
2021/04/11 06:01:44;;;;;;;59.97;38.85;;;20.60;33.70;;;;;;5091469;28;20077;-74
2021/04/11 06:04:17;;;;;;;57.97;39.50;;;20.60;32.90;;;;;;5094834;28;20094;-74
2021/04/11 06:06:51;;;;;;;61.20;39.47;;;20.90;32.90;;;;;;5096785;28;20123;-77
2021/04/11 06:09:22;;;;;;;61.85;39.45;;;21.30;32.80;;;;;;5096404;28;20034;-75
2021/04/11 06:12:16;;;;;;;61.10;39.88;;;21.70;32.70;;;;;;5096275;28;20110;-75
2021/04/11 06:15:01;;;;;;;58.03;37.95;;;21.90;32.00;;;;;;5097064;28;20354;-75
2021/04/11 06:17:27;;;;;;;62.33;41.23;;;22.10;31.80;;;;;;5096723;28;20518;-75
2021/04/11 06:19:53;;;;;;;66.85;43.30;;;22.30;31.50;;;;;;5095756;28;20257;-75
2021/04/11 06:22:30;;;;;;;69.05;45.90;;;22.40;31.50;;;;;;5096866;28;20095;-75
2021/04/11 06:24:58;;;;;;;75.82;53.90;;;22.50;30.80;;;;;;5096372;28;20062;-75
2021/04/11 06:27:32;;;;;;;74.85;51.00;;;22.70;30.30;;;;;;5096611;28;20031;-75
2021/04/11 06:30:18;;;;;;;76.28;53.15;;;22.90;30.20;;;;;;5096940;28;20036;-75
2021/04/11 06:33:03;;;;;;;69.75;51.60;;;23.10;30.10;;;;;;5096426;28;20028;-76
2021/04/11 06:35:32;;;;;;;;;;;23.30;29.70;;;;;;5096127;28;20023;-75
2021/04/11 06:38:01;;;;;;;49.55;35.83;;;23.40;30.80;;;;;;5096168;28;20279;-76
2021/04/11 06:40:41;;;;;;;46.00;34.72;;;23.60;28.80;;;;;;5095423;28;20102;-77
2021/04/11 06:43:18;;;;;;;44.13;31.58;;;23.60;28.00;;;;;;5095803;28;20102;-77
2021/04/11 06:46:30;;;;;;;35.38;27.33;;;23.80;28.00;;;;;;5096129;28;20025;-76
2021/04/11 06:49:22;;;;;;;22.88;14.07;;;24.10;27.30;;;;;;5042285;28;20071;-77
2021/04/11 06:52:00;;;;;;;13.85;7.47;;;24.40;26.70;;;;;;5093349;28;20035;-76
2021/04/11 06:54:37;;;;;;;14.27;7.00;;;24.70;26.20;;;;;;5096152;28;20020;-75
2021/04/11 06:57:03;;;;;;;12.48;7.22;;;24.90;25.70;;;;;;5094515;28;20023;-75
2021/04/11 06:59:36;;;;;;;12.68;8.50;;;25.10;25.30;;;;;;5095794;28;20028;-75
2021/04/11 07:02:22;;;;;;;12.75;8.40;;;25.30;25.10;;;;;;5094799;28;20365;-76
2021/04/11 07:05:06;;;;;;;12.82;8.52;;;25.50;25.00;;;;;;5096630;28;20024;-75
2021/04/11 07:07:37;;;;;;;13.35;8.85;;;25.50;24.80;;;;;;5083532;28;20412;-75
2021/04/11 07:10:24;;;;;;;11.52;8.50;;;25.50;24.80;;;;;;5095436;28;20069;-75
2021/04/11 07:13:10;;;;;;;12.88;8.30;;;25.70;24.60;;;;;;5074574;28;20032;-74
2021/04/11 07:15:54;;;;;;;11.25;7.63;;;25.80;24.70;;;;;;5093535;28;20016;-75
2021/04/11 07:18:28;;;;;;;9.38;6.70;;;25.70;24.40;;;;;;5095482;28;20028;-75
2021/04/11 07:21:12;;;;;;;10.77;7.40;;;25.80;24.60;;;;;;5094490;28;20174;-79
2021/04/11 07:24:14;;;;;;;9.73;7.27;;;25.60;24.50;;;;;;5093892;28;20462;-75
2021/04/11 07:26:48;;;;;;;59.90;12.43;;;25.80;24.30;;;;;;5095542;28;20020;-75
2021/04/11 07:29:29;;;;;;;;;;;25.90;24.30;;;;;;5095039;28;20060;-76
2021/04/11 07:32:26;;;;;;;14.98;9.48;;;26.10;24.90;;;;;;5095717;28;19974;-76
2021/04/11 07:35:00;;;;;;;23.85;11.95;;;26.20;24.50;;;;;;5095546;28;20020;-75
2021/04/11 07:37:45;;;;;;;20.38;11.77;;;26.20;24.60;;;;;;5095371;28;20035;-76
2021/04/11 07:40:28;;;;;;;18.92;11.80;;;26.20;24.50;;;;;;5080829;28;20020;-75
2021/04/11 07:43:21;;;;;;;19.23;11.00;;;26.30;24.30;;;;;;5093491;28;20111;-79
2021/04/11 07:45:50;;;;;;;17.33;9.57;;;26.30;24.10;;;;;;5095112;28;20426;-77
2021/04/11 07:48:25;;;;;;;14.88;9.77;;;26.10;23.70;;;;;;5094725;28;20012;-76
2021/04/11 07:51:03;;;;;;;;;;;26.00;23.70;;;;;;5095503;28;20095;-76
2021/04/11 07:53:41;;;;;;;14.32;9.23;;;25.90;24.40;;;;;;5094758;28;19900;-76
2021/04/11 07:56:28;;;;;;;14.98;9.20;;;26.00;24.20;;;;;;5094919;28;20020;-76
2021/04/11 07:59:04;;;;;;;18.48;14.05;;;26.20;24.10;;;;;;5081565;28;20469;-78
2021/04/11 08:02:17;;;;;;;22.48;19.80;;;26.50;23.80;;;;;;5093194;28;20045;-77
2021/04/11 08:05:13;;;;;;;16.27;14.07;;;26.60;23.40;;;;;;5012663;28;20022;-76
2021/04/11 08:08:00;;;;;;;20.55;14.63;;;26.40;23.30;;;;;;5081732;28;20066;-75
2021/04/11 08:10:47;;;;;;;19.98;12.55;;;26.50;23.70;;;;;;5094565;28;20024;-76
2021/04/11 08:13:34;;;;;;;12.27;9.05;;;26.40;23.40;;;;;;5094233;28;20153;-76
2021/04/11 08:16:31;;;;;;;10.43;8.68;;;26.60;23.20;;;;;;5082006;28;20524;-75
2021/04/11 08:19:24;;;;;;;11.80;7.70;;;26.90;23.10;;;;;;5059592;28;20343;-75
2021/04/11 08:21:56;;;;;;;11.68;8.82;;;26.80;22.80;;;;;;5086993;28;20438;-75
2021/04/11 08:24:56;;;;;;;14.23;10.63;;;26.60;23.20;;;;;;5080944;28;20437;-76
2021/04/11 08:27:49;;;;;;;14.35;10.15;;;26.30;23.50;;;;;;5092330;28;20028;-76
2021/04/11 08:30:33;;;;;;;24.45;21.48;;;26.60;23.90;;;;;;5082261;28;20028;-77
2021/04/11 08:33:18;;;;;;;13.73;12.35;;;26.90;23.60;;;;;;5093855;28;20023;-77
2021/04/11 08:35:59;;;;;;;39.85;35.50;;;27.00;23.30;;;;;;5092798;28;20081;-76
2021/04/11 08:38:55;;;;;;;46.20;41.30;;;27.00;23.20;;;;;;5094284;28;20454;-76
2021/04/11 08:41:53;;;;;;;24.25;21.65;;;27.10;23.40;;;;;;5094018;28;20458;-76
2021/04/11 08:44:55;;;;;;;27.55;16.23;;;27.10;23.50;;;;;;5042203;28;20040;-77
2021/04/11 08:47:38;;;;;;;14.77;13.13;;;27.10;23.20;;;;;;5082628;28;20035;-77
2021/04/11 08:50:20;;;;;;;13.95;11.18;;;27.10;23.20;;;;;;5093590;28;20027;-77
2021/04/11 08:53:01;;;;;;;16.40;11.52;;;27.20;24.00;;;;;;5093749;28;20122;-77
2021/04/11 08:55:39;;;;;;;17.58;13.13;;;27.50;23.60;;;;;;5080058;28;20012;-76
2021/04/11 08:58:26;;;;;;;18.95;16.73;;;27.60;23.30;;;;;;5093903;28;20028;-77
2021/04/11 09:01:07;;;;;;;12.68;10.63;;;27.60;23.70;;;;;;5082855;28;20106;-77
2021/04/11 09:03:55;;;;;;;11.40;9.60;;;27.60;23.40;;;;;;5092281;28;20442;-76
2021/04/11 09:06:40;;;;;;;11.65;9.00;;;27.80;23.30;;;;;;5091893;28;20359;-76
2021/04/11 09:09:43;;;;;;;11.27;9.20;;;27.60;23.00;;;;;;5078491;28;20031;-77
2021/04/11 09:12:36;;;;;;;12.18;10.32;;;27.50;23.00;;;;;;5093504;28;20035;-76
2021/04/11 09:15:08;;;;;;;13.02;10.95;;;27.30;23.00;;;;;;5092027;28;20024;-77
2021/04/11 09:17:49;;;;;;;10.50;8.77;;;27.40;22.70;;;;;;5092110;28;20549;-76
2021/04/11 09:20:36;;;;;;;15.35;8.85;;;27.20;22.60;;;;;;5093468;28;20012;-76
2021/04/11 09:23:20;;;;;;;10.35;7.85;;;26.90;22.50;;;;;;5082544;28;20028;-76
2021/04/11 09:26:01;;;;;;;13.07;11.70;;;26.80;23.10;;;;;;5091941;28;20024;-75
2021/04/11 09:28:59;;;;;;;9.75;7.65;;;26.80;23.10;;;;;;5091888;28;20278;-76
2021/04/11 09:31:32;;;;;;;12.85;8.85;;;27.10;23.00;;;;;;5072442;28;20436;-76
2021/04/11 09:34:32;;;;;;;15.40;11.77;;;27.20;23.20;;;;;;5092203;28;20019;-76
2021/04/11 09:37:39;;;;;;;10.70;7.88;;;27.40;23.00;;;;;;5081136;28;20023;-76
2021/04/11 09:40:47;;;;;;;9.73;7.40;;;27.60;22.80;;;;;;5091069;28;20016;-76
2021/04/11 09:43:33;;;;;;;9.68;8.68;;;27.70;22.90;;;;;;5055070;28;20028;-76
2021/04/11 09:46:42;;;;;;;10.85;8.70;;;27.60;22.60;;;;;;5093192;28;20466;-75
2021/04/11 09:49:13;;;;;;;13.57;10.63;;;27.50;22.90;;;;;;5082851;28;20024;-74
2021/04/11 09:52:03;;;;;;;15.90;14.23;;;27.50;22.60;;;;;;5092613;28;20408;-76
2021/04/11 09:55:05;;;;;;;12.88;9.60;;;27.30;22.50;;;;;;5091957;28;20024;-75
2021/04/11 09:57:55;;;;;;;21.10;18.90;;;27.40;22.60;;;;;;5082543;28;20037;-75
2021/04/11 10:00:33;;;;;;;10.73;8.55;;;27.60;22.70;;;;;;5092602;28;20016;-75
2021/04/11 10:03:34;;;;;;;11.90;8.57;;;27.60;22.50;;;;;;5092651;28;20458;-75
2021/04/11 10:06:30;;;;;;;14.10;11.00;;;27.60;22.40;;;;;;5093458;28;20050;-75
2021/04/11 10:09:14;;;;;;;11.10;9.40;;;27.40;22.70;;;;;;5091085;28;20111;-76
2021/04/11 10:11:52;;;;;;;10.73;7.85;;;27.30;22.50;;;;;;5092975;28;20024;-75
2021/04/11 10:14:55;;;;;;;10.85;7.90;;;27.30;22.40;;;;;;5080298;28;20024;-74
2021/04/11 10:17:48;;;;;;;12.25;8.10;;;27.10;22.20;;;;;;5092544;28;20366;-75
2021/04/11 10:20:16;;;;;;;12.82;10.50;;;27.20;22.90;;;;;;5092463;28;20104;-77
2021/04/11 10:22:56;;;;;;;9.65;7.88;;;27.20;22.70;;;;;;5092677;28;20061;-75
2021/04/11 10:25:36;;;;;;;9.70;7.20;;;27.30;22.80;;;;;;5092814;28;20020;-76
2021/04/11 10:28:11;;;;;;;9.88;7.93;;;27.20;22.70;;;;;;5091219;28;20040;-75
2021/04/11 10:30:37;;;;;;;10.30;7.25;;;27.10;22.50;;;;;;5081100;28;20032;-75
2021/04/11 10:33:22;;;;;;;10.40;8.05;;;26.90;23.00;;;;;;5088969;28;20020;-75
2021/04/11 10:36:12;;;;;;;14.15;10.90;;;26.80;22.50;;;;;;5093136;28;20354;-75
2021/04/11 10:38:48;;;;;;;11.55;8.10;;;26.90;23.60;;;;;;5080771;28;20038;-76
2021/04/11 10:41:35;;;;;;;13.50;8.65;;;27.00;23.40;;;;;;5091901;28;20434;-76
2021/04/11 10:44:13;;;;;;;12.05;7.82;;;27.20;22.90;;;;;;5091595;28;20454;-76
2021/04/11 10:47:00;;;;;;;11.63;7.68;;;27.20;22.70;;;;;;5090892;28;20153;-76
2021/04/11 10:49:56;;;;;;;10.52;7.75;;;27.20;22.90;;;;;;5091244;28;20469;-76
2021/04/11 10:52:44;;;;;;;11.55;8.23;;;27.20;23.00;;;;;;5084143;28;20020;-76
2021/04/11 10:55:39;;;;;;;12.40;8.05;;;27.20;23.10;;;;;;5095816;28;20016;-76
2021/04/11 10:58:36;;;;;;;11.05;7.65;;;27.30;22.70;;;;;;5095045;28;20034;-79
2021/04/11 11:01:16;;;;;;;11.73;7.70;;;27.30;22.70;;;;;;5086142;28;20013;-76
2021/04/11 11:04:28;;;;;;;11.80;8.73;;;27.20;22.40;;;;;;5094702;28;20012;-76
2021/04/11 11:07:15;;;;;;;11.07;8.60;;;27.10;22.50;;;;;;5054017;28;20091;-81
2021/04/11 11:10:09;;;;;;;12.90;9.43;;;27.10;22.50;;;;;;5094041;28;20127;-76
2021/04/11 11:12:53;;;;;;;11.85;8.55;;;27.00;22.60;;;;;;5057435;28;20036;-75
2021/04/11 11:15:53;;;;;;;13.18;9.63;;;27.00;22.50;;;;;;5095565;28;20161;-75
2021/04/11 11:18:43;;;;;;;11.80;8.63;;;26.90;22.50;;;;;;5094272;28;20035;-77
2021/04/11 11:21:46;;;;;;;12.38;8.23;;;26.90;22.50;;;;;;5083104;28;20450;-76
2021/04/11 11:24:27;;;;;;;13.13;7.72;;;27.00;22.40;;;;;;5093909;28;20062;-76
2021/04/11 11:27:23;;;;;;;11.32;8.68;;;26.90;22.40;;;;;;5095314;28;20031;-80
2021/04/11 11:30:26;;;;;;;11.07;9.05;;;26.70;22.20;;;;;;5094499;28;20467;-75
2021/04/11 11:33:14;;;;;;;15.65;9.63;;;26.60;22.30;;;;;;5079530;28;20031;-76
2021/04/11 11:35:55;;;;;;;12.82;8.85;;;26.50;22.30;;;;;;5095614;28;20025;-75
2021/04/11 11:38:41;;;;;;;14.60;9.25;;;26.40;22.30;;;;;;5093598;28;20052;-75
2021/04/11 11:41:26;;;;;;;12.93;8.65;;;26.20;22.50;;;;;;5093295;28;20404;-78
2021/04/11 11:44:12;;;;;;;14.77;11.80;;;26.20;22.50;;;;;;5095384;28;20468;-76
2021/04/11 11:47:10;;;;;;;14.68;9.40;;;25.90;22.50;;;;;;5095220;28;20115;-75
2021/04/11 11:50:19;;;;;;;15.23;9.43;;;25.40;22.60;;;;;;5073245;28;20161;-76
2021/04/11 11:52:48;;;;;;;12.45;8.55;;;24.60;22.60;;;;;;5090050;28;20100;-76
2021/04/11 11:55:54;;;;;;;16.63;9.35;;;23.70;23.20;;;;;;5093230;28;20024;-76
2021/04/11 11:58:34;;;;;;;11.43;9.52;;;22.80;23.40;;;;;;5079543;28;20123;-76
2021/04/11 12:01:05;;;;;;;19.38;16.83;;;22.30;23.90;;;;;;5092746;28;20016;-77
2021/04/11 12:03:34;;;;;;;15.40;10.15;;;21.90;24.40;;;;;;5093044;28;20138;-76
2021/04/11 12:06:12;;;;;;;12.80;8.77;;;21.60;24.50;;;;;;5093244;28;20081;-76
2021/04/11 12:09:01;;;;;;;12.20;9.02;;;21.10;24.50;;;;;;5092927;28;20050;-74
2021/04/11 12:11:47;;;;;;;15.55;11.82;;;20.80;25.20;;;;;;5098573;28;20024;-74
2021/04/11 12:14:32;;;;;;;12.20;8.82;;;20.50;25.00;;;;;;5088311;28;20045;-74
2021/04/11 12:17:40;;;;;;;12.80;9.00;;;20.10;25.10;;;;;;5099487;28;20035;-75
2021/04/11 12:20:20;;;;;;;20.75;18.55;;;19.70;25.20;;;;;;5106417;28;20000;-75
2021/04/11 12:23:08;;;;;;;14.02;12.07;;;19.40;25.40;;;;;;5091046;28;20366;-76
2021/04/11 12:25:35;;;;;;;13.63;11.25;;;19.10;25.60;;;;;;5103601;28;20023;-76
2021/04/11 12:28:26;;;;;;;14.15;8.80;;;18.90;25.80;;;;;;5097846;28;20020;-76
2021/04/11 12:31:10;;;;;;;31.60;26.58;;;18.70;25.90;;;;;;5103320;28;20028;-76
2021/04/11 12:34:06;;;;;;;22.42;13.63;;;18.40;26.00;;;;;;5095151;28;20111;-76
2021/04/11 12:36:40;;;;;;;12.18;8.02;;;18.30;26.50;;;;;;5096562;28;20016;-76
2021/04/11 12:39:24;;;;;;;14.20;9.18;;;18.20;26.30;;;;;;5094497;28;20036;-76
2021/04/11 12:42:17;;;;;;;19.13;12.73;;;18.00;26.50;;;;;;5093347;28;20103;-76
2021/04/11 12:45:28;;;;;;;14.77;10.35;;;18.00;26.80;;;;;;5094338;28;20016;-76
2021/04/11 12:48:12;;;;;;;13.45;9.45;;;18.00;26.80;;;;;;5051327;28;20021;-78
2021/04/11 12:51:02;;;;;;;14.60;8.57;;;18.00;27.00;;;;;;5081168;28;20359;-76
2021/04/11 12:54:10;;;;;;;13.77;8.27;;;18.00;27.00;;;;;;5094430;28;20020;-75
2021/04/11 12:56:46;;;;;;;12.77;8.10;;;18.10;27.10;;;;;;5093278;28;20024;-76
2021/04/11 12:59:50;;;;;;;16.67;11.40;;;18.10;27.30;;;;;;5092936;28;20028;-75
2021/04/11 13:02:21;;;;;;;16.40;10.73;;;18.10;26.70;;;;;;5031386;28;20048;-76
2021/04/11 13:04:58;;;;;;;13.77;9.50;;;17.80;26.80;;;;;;5079594;28;20416;-76
2021/04/11 13:07:28;;;;;;;14.85;10.43;;;17.80;26.90;;;;;;5093900;28;20474;-75
2021/04/11 13:10:06;;;;;;;15.40;10.35;;;17.80;27.00;;;;;;5091941;28;20444;-75
2021/04/11 13:13:11;;;;;;;15.02;12.43;;;17.80;27.00;;;;;;5079029;28;20027;-75
2021/04/11 13:15:49;;;;;;;12.30;8.48;;;17.70;27.00;;;;;;5093657;28;20366;-75
2021/04/11 13:18:44;;;;;;;12.57;8.77;;;17.70;26.90;;;;;;5092318;28;20473;-75
2021/04/11 13:21:31;;;;;;;15.50;9.00;;;17.60;27.00;;;;;;5081285;28;20027;-75
2021/04/11 13:24:06;;;;;;;12.38;8.38;;;17.60;27.00;;;;;;5092196;28;20016;-75
2021/04/11 13:26:48;;;;;;;17.55;14.30;;;17.50;27.10;;;;;;5093655;28;20044;-75
2021/04/11 13:29:30;;;;;;;15.23;11.48;;;17.60;27.40;;;;;;5092649;28;20031;-75
2021/04/11 13:32:13;;;;;;;15.90;11.20;;;17.60;27.30;;;;;;5093220;28;20024;-74
2021/04/11 13:34:58;;;;;;;15.63;9.77;;;17.60;27.30;;;;;;5092813;28;20039;-74